sensor_id;sensor_type;location;lat;lon;timestamp;P1;P2;P0
77320;PMS7003;66382;52.252;8.780;2023-02-22T00:02:18;34.00;32.25;22.25
77320;PMS7003;66382;52.252;8.780;2023-02-22T00:04:44;39.50;35.50;22.75
77320;PMS7003;66382;52.252;8.780;2023-02-22T00:07:10;37.25;34.00;21.00
77320;PMS7003;66382;52.252;8.780;2023-02-22T00:09:35;35.00;34.00;21.00
77320;PMS7003;66382;52.252;8.780;2023-02-22T00:12:01;39.00;33.50;21.00
77320;PMS7003;66382;52.252;8.780;2023-02-22T00:14:27;40.75;35.75;21.75
77320;PMS7003;66382;52.252;8.780;2023-02-22T00:16:54;33.25;32.50;21.00
77320;PMS7003;66382;52.252;8.780;2023-02-22T00:19:20;40.50;35.25;21.00
77320;PMS7003;66382;52.252;8.780;2023-02-22T00:21:50;36.75;34.25;21.75
77320;PMS7003;66382;52.252;8.780;2023-02-22T00:24:16;35.50;33.75;21.00
77320;PMS7003;66382;52.252;8.780;2023-02-22T00:26:41;35.75;34.50;21.00
77320;PMS7003;66382;52.252;8.780;2023-02-22T00:29:07;33.25;31.75;16.50
77320;PMS7003;66382;52.252;8.780;2023-02-22T00:31:35;36.50;34.00;22.00
77320;PMS7003;66382;52.252;8.780;2023-02-22T00:34:03;36.50;34.50;21.25
77320;PMS7003;66382;52.252;8.780;2023-02-22T00:36:29;31.00;31.00;20.25
77320;PMS7003;66382;52.252;8.780;2023-02-22T00:38:54;33.00;32.00;20.75
77320;PMS7003;66382;52.252;8.780;2023-02-22T00:41:20;33.50;32.50;19.75
77320;PMS7003;66382;52.252;8.780;2023-02-22T00:43:46;29.00;28.50;18.50
77320;PMS7003;66382;52.252;8.780;2023-02-22T00:46:12;29.50;29.50;19.75
77320;PMS7003;66382;52.252;8.780;2023-02-22T00:48:38;31.00;30.75;19.25
77320;PMS7003;66382;52.252;8.780;2023-02-22T00:51:05;31.25;29.25;19.25
77320;PMS7003;66382;52.252;8.780;2023-02-22T00:53:31;30.00;27.75;14.75
77320;PMS7003;66382;52.252;8.780;2023-02-22T00:55:56;28.75;28.75;17.00
77320;PMS7003;66382;52.252;8.780;2023-02-22T00:58:22;25.75;25.50;17.50
77320;PMS7003;66382;52.252;8.780;2023-02-22T01:00:48;26.00;25.25;18.00
77320;PMS7003;66382;52.252;8.780;2023-02-22T01:03:15;28.75;28.75;18.75
77320;PMS7003;66382;52.252;8.780;2023-02-22T01:05:42;29.00;28.25;18.50
77320;PMS7003;66382;52.252;8.780;2023-02-22T01:08:10;31.00;31.00;18.25
77320;PMS7003;66382;52.252;8.780;2023-02-22T01:10:37;33.00;32.25;16.50
77320;PMS7003;66382;52.252;8.780;2023-02-22T01:13:04;25.00;24.00;16.00
77320;PMS7003;66382;52.252;8.780;2023-02-22T01:15:31;31.00;30.75;17.25
77320;PMS7003;66382;52.252;8.780;2023-02-22T01:17:57;27.00;27.00;18.00
77320;PMS7003;66382;52.252;8.780;2023-02-22T01:20:24;29.50;28.75;17.00
77320;PMS7003;66382;52.252;8.780;2023-02-22T01:22:50;29.00;29.00;19.00
77320;PMS7003;66382;52.252;8.780;2023-02-22T01:25:20;29.25;27.75;14.50
77320;PMS7003;66382;52.252;8.780;2023-02-22T01:27:47;27.50;25.00;15.50
77320;PMS7003;66382;52.252;8.780;2023-02-22T01:30:14;30.00;29.00;20.00
77320;PMS7003;66382;52.252;8.780;2023-02-22T01:32:43;28.00;28.00;18.00
77320;PMS7003;66382;52.252;8.780;2023-02-22T01:35:10;26.75;26.50;18.50
77320;PMS7003;66382;52.252;8.780;2023-02-22T01:37:38;29.50;26.00;16.25
77320;PMS7003;66382;52.252;8.780;2023-02-22T01:40:06;27.50;27.50;17.25
77320;PMS7003;66382;52.252;8.780;2023-02-22T01:42:35;29.00;29.00;18.25
77320;PMS7003;66382;52.252;8.780;2023-02-22T01:48:05;32.25;30.75;19.25
77320;PMS7003;66382;52.252;8.780;2023-02-22T01:50:36;30.50;30.50;18.75
77320;PMS7003;66382;52.252;8.780;2023-02-22T01:53:05;23.25;22.75;13.50
77320;PMS7003;66382;52.252;8.780;2023-02-22T01:55:33;29.00;29.00;17.75
77320;PMS7003;66382;52.252;8.780;2023-02-22T01:58:01;27.75;27.75;17.00
77320;PMS7003;66382;52.252;8.780;2023-02-22T02:00:29;28.50;28.50;18.00
77320;PMS7003;66382;52.252;8.780;2023-02-22T02:02:56;24.50;24.50;14.75
77320;PMS7003;66382;52.252;8.780;2023-02-22T02:05:26;28.25;28.25;17.00
77320;PMS7003;66382;52.252;8.780;2023-02-22T02:07:53;24.75;24.75;16.00
77320;PMS7003;66382;52.252;8.780;2023-02-22T02:10:19;28.00;28.00;18.75
77320;PMS7003;66382;52.252;8.780;2023-02-22T02:12:46;26.50;26.50;17.25
77320;PMS7003;66382;52.252;8.780;2023-02-22T02:15:30;28.25;26.50;17.00
77320;PMS7003;66382;52.252;8.780;2023-02-22T02:17:58;32.25;30.50;18.75
77320;PMS7003;66382;52.252;8.780;2023-02-22T02:20:26;30.00;30.00;18.00
77320;PMS7003;66382;52.252;8.780;2023-02-22T02:22:57;27.75;26.75;17.50
77320;PMS7003;66382;52.252;8.780;2023-02-22T02:28:50;27.75;27.25;17.00
77320;PMS7003;66382;52.252;8.780;2023-02-22T02:34:34;27.00;26.00;16.50
77320;PMS7003;66382;52.252;8.780;2023-02-22T02:37:12;28.25;28.25;16.75
77320;PMS7003;66382;52.252;8.780;2023-02-22T02:39:47;24.00;24.00;15.75
77320;PMS7003;66382;52.252;8.780;2023-02-22T02:42:19;25.75;24.50;16.50
77320;PMS7003;66382;52.252;8.780;2023-02-22T02:44:48;23.25;23.25;15.00
77320;PMS7003;66382;52.252;8.780;2023-02-22T02:47:22;20.75;20.25;12.25
77320;PMS7003;66382;52.252;8.780;2023-02-22T02:49:53;21.00;21.00;11.75
77320;PMS7003;66382;52.252;8.780;2023-02-22T02:52:24;22.00;22.00;13.75
77320;PMS7003;66382;52.252;8.780;2023-02-22T02:54:53;24.50;24.50;16.00
77320;PMS7003;66382;52.252;8.780;2023-02-22T02:57:20;25.00;24.50;13.75
77320;PMS7003;66382;52.252;8.780;2023-02-22T02:59:46;24.50;24.50;15.50
77320;PMS7003;66382;52.252;8.780;2023-02-22T03:02:17;25.00;25.00;16.50
77320;PMS7003;66382;52.252;8.780;2023-02-22T03:04:59;23.50;23.50;14.50
77320;PMS7003;66382;52.252;8.780;2023-02-22T03:07:44;22.00;22.00;13.50
77320;PMS7003;66382;52.252;8.780;2023-02-22T03:10:20;21.50;21.50;14.00
77320;PMS7003;66382;52.252;8.780;2023-02-22T03:13:00;26.00;24.00;11.00
77320;PMS7003;66382;52.252;8.780;2023-02-22T03:15:34;24.50;24.50;15.00
77320;PMS7003;66382;52.252;8.780;2023-02-22T03:18:12;21.00;21.00;13.75
77320;PMS7003;66382;52.252;8.780;2023-02-22T03:20:43;25.00;24.25;14.50
77320;PMS7003;66382;52.252;8.780;2023-02-22T03:23:17;23.25;23.25;15.25
77320;PMS7003;66382;52.252;8.780;2023-02-22T03:25:49;23.25;23.25;14.00
77320;PMS7003;66382;52.252;8.780;2023-02-22T03:28:18;27.25;26.50;16.00
77320;PMS7003;66382;52.252;8.780;2023-02-22T03:30:47;23.25;23.25;14.00
77320;PMS7003;66382;52.252;8.780;2023-02-22T03:33:18;18.75;18.75;10.75
77320;PMS7003;66382;52.252;8.780;2023-02-22T03:35:48;23.50;23.50;16.00
77320;PMS7003;66382;52.252;8.780;2023-02-22T03:38:20;26.50;26.50;17.50
77320;PMS7003;66382;52.252;8.780;2023-02-22T03:40:51;24.00;24.00;14.50
77320;PMS7003;66382;52.252;8.780;2023-02-22T03:43:21;30.25;25.75;16.00
77320;PMS7003;66382;52.252;8.780;2023-02-22T03:45:49;25.75;25.75;14.50
77320;PMS7003;66382;52.252;8.780;2023-02-22T03:48:16;26.50;26.50;16.50
77320;PMS7003;66382;52.252;8.780;2023-02-22T03:50:49;28.75;27.25;17.00
77320;PMS7003;66382;52.252;8.780;2023-02-22T03:53:16;21.50;19.75;14.50
77320;PMS7003;66382;52.252;8.780;2023-02-22T03:55:43;29.00;26.50;16.00
77320;PMS7003;66382;52.252;8.780;2023-02-22T03:58:10;25.00;25.00;14.75
77320;PMS7003;66382;52.252;8.780;2023-02-22T04:00:38;27.75;24.00;14.75
77320;PMS7003;66382;52.252;8.780;2023-02-22T04:03:04;23.75;23.50;14.00
77320;PMS7003;66382;52.252;8.780;2023-02-22T04:05:31;27.75;27.75;15.00
77320;PMS7003;66382;52.252;8.780;2023-02-22T04:07:57;23.75;23.75;16.50
77320;PMS7003;66382;52.252;8.780;2023-02-22T04:10:23;23.75;23.75;15.25
77320;PMS7003;66382;52.252;8.780;2023-02-22T04:12:49;24.75;24.25;14.00
77320;PMS7003;66382;52.252;8.780;2023-02-22T04:15:15;26.00;25.75;16.50
77320;PMS7003;66382;52.252;8.780;2023-02-22T04:17:42;22.75;22.25;15.25
77320;PMS7003;66382;52.252;8.780;2023-02-22T04:20:08;24.50;23.25;16.00
77320;PMS7003;66382;52.252;8.780;2023-02-22T04:22:36;26.25;25.50;16.00
77320;PMS7003;66382;52.252;8.780;2023-02-22T04:25:01;24.75;24.75;15.00
77320;PMS7003;66382;52.252;8.780;2023-02-22T04:27:27;27.00;25.00;16.25
77320;PMS7003;66382;52.252;8.780;2023-02-22T04:29:53;24.25;24.25;17.50
77320;PMS7003;66382;52.252;8.780;2023-02-22T04:32:19;28.25;26.50;14.25
77320;PMS7003;66382;52.252;8.780;2023-02-22T04:34:44;28.25;26.75;16.50
77320;PMS7003;66382;52.252;8.780;2023-02-22T04:37:10;24.75;23.75;14.25
77320;PMS7003;66382;52.252;8.780;2023-02-22T04:39:37;23.75;22.75;13.75
77320;PMS7003;66382;52.252;8.780;2023-02-22T04:42:03;24.00;24.00;16.00
77320;PMS7003;66382;52.252;8.780;2023-02-22T04:44:28;24.00;24.00;13.25
77320;PMS7003;66382;52.252;8.780;2023-02-22T04:46:54;27.25;26.75;16.00
77320;PMS7003;66382;52.252;8.780;2023-02-22T04:49:20;28.75;27.75;16.75
77320;PMS7003;66382;52.252;8.780;2023-02-22T04:51:45;27.25;27.00;15.50
77320;PMS7003;66382;52.252;8.780;2023-02-22T04:54:11;27.50;26.00;14.50
77320;PMS7003;66382;52.252;8.780;2023-02-22T04:56:38;24.25;24.25;16.75
77320;PMS7003;66382;52.252;8.780;2023-02-22T04:59:04;24.00;23.75;13.25
77320;PMS7003;66382;52.252;8.780;2023-02-22T05:01:30;26.50;23.75;14.50
77320;PMS7003;66382;52.252;8.780;2023-02-22T05:03:56;21.75;21.75;14.75
77320;PMS7003;66382;52.252;8.780;2023-02-22T05:06:22;19.00;19.00;10.00
77320;PMS7003;66382;52.252;8.780;2023-02-22T05:08:47;30.00;28.25;16.75
77320;PMS7003;66382;52.252;8.780;2023-02-22T05:11:13;27.00;26.25;14.25
77320;PMS7003;66382;52.252;8.780;2023-02-22T05:13:40;25.75;24.75;14.50
77320;PMS7003;66382;52.252;8.780;2023-02-22T05:16:06;24.75;24.00;16.50
77320;PMS7003;66382;52.252;8.780;2023-02-22T05:18:32;25.50;24.50;16.25
77320;PMS7003;66382;52.252;8.780;2023-02-22T05:20:57;26.75;25.75;15.00
77320;PMS7003;66382;52.252;8.780;2023-02-22T05:23:23;27.50;27.50;16.25
77320;PMS7003;66382;52.252;8.780;2023-02-22T05:25:49;26.75;24.50;15.25
77320;PMS7003;66382;52.252;8.780;2023-02-22T05:28:15;25.50;24.25;15.50
77320;PMS7003;66382;52.252;8.780;2023-02-22T05:30:42;24.50;24.50;17.50
77320;PMS7003;66382;52.252;8.780;2023-02-22T05:33:08;28.25;28.25;18.75
77320;PMS7003;66382;52.252;8.780;2023-02-22T05:35:34;28.75;28.75;18.50
77320;PMS7003;66382;52.252;8.780;2023-02-22T05:38:00;28.25;27.50;17.25
77320;PMS7003;66382;52.252;8.780;2023-02-22T05:40:26;26.50;24.50;14.00
77320;PMS7003;66382;52.252;8.780;2023-02-22T05:42:53;24.25;24.25;15.50
77320;PMS7003;66382;52.252;8.780;2023-02-22T05:45:20;23.00;22.50;14.75
77320;PMS7003;66382;52.252;8.780;2023-02-22T05:47:49;26.50;25.75;16.25
77320;PMS7003;66382;52.252;8.780;2023-02-22T05:50:16;25.25;25.00;15.75
77320;PMS7003;66382;52.252;8.780;2023-02-22T05:52:42;28.25;27.50;16.50
77320;PMS7003;66382;52.252;8.780;2023-02-22T05:55:09;28.25;27.00;15.25
77320;PMS7003;66382;52.252;8.780;2023-02-22T05:57:37;21.25;21.25;15.50
77320;PMS7003;66382;52.252;8.780;2023-02-22T06:00:03;21.75;21.00;12.75
77320;PMS7003;66382;52.252;8.780;2023-02-22T06:02:30;30.50;27.25;16.50
77320;PMS7003;66382;52.252;8.780;2023-02-22T06:04:57;34.50;32.75;22.00
77320;PMS7003;66382;52.252;8.780;2023-02-22T06:07:23;38.50;35.50;21.50
77320;PMS7003;66382;52.252;8.780;2023-02-22T06:09:48;46.50;40.25;22.25
77320;PMS7003;66382;52.252;8.780;2023-02-22T06:12:14;49.75;42.25;24.25
77320;PMS7003;66382;52.252;8.780;2023-02-22T06:14:40;55.25;45.75;25.50
77320;PMS7003;66382;52.252;8.780;2023-02-22T06:17:06;45.75;40.25;23.25
77320;PMS7003;66382;52.252;8.780;2023-02-22T06:19:32;41.50;37.25;24.00
77320;PMS7003;66382;52.252;8.780;2023-02-22T06:21:59;29.25;29.25;16.75
77320;PMS7003;66382;52.252;8.780;2023-02-22T06:24:25;29.00;29.00;17.75
77320;PMS7003;66382;52.252;8.780;2023-02-22T06:26:53;31.75;30.50;19.25
77320;PMS7003;66382;52.252;8.780;2023-02-22T06:29:19;27.75;27.00;18.00
77320;PMS7003;66382;52.252;8.780;2023-02-22T06:31:45;27.50;27.25;16.75
77320;PMS7003;66382;52.252;8.780;2023-02-22T06:34:11;30.25;30.25;20.00
77320;PMS7003;66382;52.252;8.780;2023-02-22T06:36:36;31.75;31.75;19.25
77320;PMS7003;66382;52.252;8.780;2023-02-22T06:39:03;30.25;28.75;17.75
77320;PMS7003;66382;52.252;8.780;2023-02-22T06:41:29;26.00;24.50;15.25
77320;PMS7003;66382;52.252;8.780;2023-02-22T06:43:55;28.25;28.25;18.00
77320;PMS7003;66382;52.252;8.780;2023-02-22T06:46:20;29.00;29.00;18.25
77320;PMS7003;66382;52.252;8.780;2023-02-22T06:48:46;27.75;27.75;14.75
77320;PMS7003;66382;52.252;8.780;2023-02-22T06:51:12;30.25;30.25;18.00
77320;PMS7003;66382;52.252;8.780;2023-02-22T06:53:37;30.25;29.00;17.75
77320;PMS7003;66382;52.252;8.780;2023-02-22T06:56:05;23.25;23.25;15.50
77320;PMS7003;66382;52.252;8.780;2023-02-22T06:58:31;25.75;25.00;16.50
77320;PMS7003;66382;52.252;8.780;2023-02-22T07:00:57;30.50;30.25;18.75
77320;PMS7003;66382;52.252;8.780;2023-02-22T07:03:22;28.75;27.75;15.75
77320;PMS7003;66382;52.252;8.780;2023-02-22T07:05:48;26.75;26.75;18.00
77320;PMS7003;66382;52.252;8.780;2023-02-22T07:08:14;21.00;21.00;13.00
77320;PMS7003;66382;52.252;8.780;2023-02-22T07:10:39;30.00;30.00;15.75
77320;PMS7003;66382;52.252;8.780;2023-02-22T07:13:07;27.25;27.25;15.75
77320;PMS7003;66382;52.252;8.780;2023-02-22T07:15:33;27.75;27.75;15.25
77320;PMS7003;66382;52.252;8.780;2023-02-22T07:17:59;25.50;25.50;17.00
77320;PMS7003;66382;52.252;8.780;2023-02-22T07:20:26;23.75;23.25;15.75
77320;PMS7003;66382;52.252;8.780;2023-02-22T07:22:53;27.00;27.00;17.75
77320;PMS7003;66382;52.252;8.780;2023-02-22T07:25:20;23.25;22.75;15.75
77320;PMS7003;66382;52.252;8.780;2023-02-22T07:27:47;28.25;28.25;15.00
77320;PMS7003;66382;52.252;8.780;2023-02-22T07:30:18;29.75;29.75;17.75
77320;PMS7003;66382;52.252;8.780;2023-02-22T07:32:46;27.75;27.75;15.50
77320;PMS7003;66382;52.252;8.780;2023-02-22T07:35:15;25.00;25.00;15.00
77320;PMS7003;66382;52.252;8.780;2023-02-22T07:37:41;24.75;24.75;17.00
77320;PMS7003;66382;52.252;8.780;2023-02-22T07:40:08;27.00;27.00;16.50
77320;PMS7003;66382;52.252;8.780;2023-02-22T07:42:44;26.00;25.50;15.25
77320;PMS7003;66382;52.252;8.780;2023-02-22T07:45:15;29.25;29.25;15.25
77320;PMS7003;66382;52.252;8.780;2023-02-22T07:47:42;24.75;24.75;18.00
77320;PMS7003;66382;52.252;8.780;2023-02-22T07:50:07;27.00;27.00;15.25
77320;PMS7003;66382;52.252;8.780;2023-02-22T07:52:33;28.00;27.25;16.00
77320;PMS7003;66382;52.252;8.780;2023-02-22T07:54:59;25.00;24.25;14.25
77320;PMS7003;66382;52.252;8.780;2023-02-22T07:57:25;23.75;23.75;17.00
77320;PMS7003;66382;52.252;8.780;2023-02-22T07:59:50;32.50;31.00;16.75
77320;PMS7003;66382;52.252;8.780;2023-02-22T08:02:17;29.25;29.25;17.25
77320;PMS7003;66382;52.252;8.780;2023-02-22T08:04:43;30.25;29.00;17.50
77320;PMS7003;66382;52.252;8.780;2023-02-22T08:07:09;32.50;31.50;19.75
77320;PMS7003;66382;52.252;8.780;2023-02-22T08:09:35;29.00;29.00;17.50
77320;PMS7003;66382;52.252;8.780;2023-02-22T08:12:00;32.50;31.75;20.25
77320;PMS7003;66382;52.252;8.780;2023-02-22T08:14:26;25.25;25.00;17.75
77320;PMS7003;66382;52.252;8.780;2023-02-22T08:16:52;36.00;33.50;20.25
77320;PMS7003;66382;52.252;8.780;2023-02-22T08:19:19;24.75;24.50;16.25
77320;PMS7003;66382;52.252;8.780;2023-02-22T08:21:44;32.25;30.25;19.25
77320;PMS7003;66382;52.252;8.780;2023-02-22T08:24:10;27.00;27.00;18.25
77320;PMS7003;66382;52.252;8.780;2023-02-22T08:26:36;31.75;31.00;19.75
77320;PMS7003;66382;52.252;8.780;2023-02-22T08:29:01;28.00;27.25;18.25
77320;PMS7003;66382;52.252;8.780;2023-02-22T08:31:27;27.75;27.75;19.75
77320;PMS7003;66382;52.252;8.780;2023-02-22T08:33:53;29.25;29.25;19.50
77320;PMS7003;66382;52.252;8.780;2023-02-22T08:36:20;30.25;30.25;19.00
77320;PMS7003;66382;52.252;8.780;2023-02-22T08:38:45;30.25;29.75;19.00
77320;PMS7003;66382;52.252;8.780;2023-02-22T08:41:11;28.25;28.25;18.50
77320;PMS7003;66382;52.252;8.780;2023-02-22T08:43:37;24.00;24.00;16.75
77320;PMS7003;66382;52.252;8.780;2023-02-22T08:46:03;26.75;26.00;15.50
77320;PMS7003;66382;52.252;8.780;2023-02-22T08:48:29;31.00;30.25;19.25
77320;PMS7003;66382;52.252;8.780;2023-02-22T08:50:54;26.50;26.50;19.75
77320;PMS7003;66382;52.252;8.780;2023-02-22T08:53:21;21.25;21.25;14.00
77320;PMS7003;66382;52.252;8.780;2023-02-22T08:55:47;28.50;28.50;17.75
77320;PMS7003;66382;52.252;8.780;2023-02-22T08:58:13;31.75;30.75;19.00
77320;PMS7003;66382;52.252;8.780;2023-02-22T09:00:39;30.50;29.25;20.00
77320;PMS7003;66382;52.252;8.780;2023-02-22T09:03:06;31.00;30.00;20.00
77320;PMS7003;66382;52.252;8.780;2023-02-22T09:05:34;31.00;30.25;20.50
77320;PMS7003;66382;52.252;8.780;2023-02-22T09:08:00;30.75;30.00;19.75
77320;PMS7003;66382;52.252;8.780;2023-02-22T09:10:29;29.25;28.00;18.25
77320;PMS7003;66382;52.252;8.780;2023-02-22T09:12:56;34.75;31.75;18.50
77320;PMS7003;66382;52.252;8.780;2023-02-22T09:15:23;30.25;29.75;20.00
77320;PMS7003;66382;52.252;8.780;2023-02-22T09:17:50;33.25;31.50;20.00
77320;PMS7003;66382;52.252;8.780;2023-02-22T09:20:16;32.75;30.75;18.75
77320;PMS7003;66382;52.252;8.780;2023-02-22T09:22:44;31.00;30.50;20.50
77320;PMS7003;66382;52.252;8.780;2023-02-22T09:25:10;28.25;28.25;21.25
77320;PMS7003;66382;52.252;8.780;2023-02-22T09:27:38;30.00;30.00;21.75
77320;PMS7003;66382;52.252;8.780;2023-02-22T09:30:04;34.75;32.00;20.00
77320;PMS7003;66382;52.252;8.780;2023-02-22T09:32:30;34.00;32.25;19.00
77320;PMS7003;66382;52.252;8.780;2023-02-22T09:34:56;32.25;31.00;17.75
77320;PMS7003;66382;52.252;8.780;2023-02-22T09:37:21;31.00;30.00;19.33
77320;PMS7003;66382;52.252;8.780;2023-02-22T09:39:47;25.33;25.33;17.00
77320;PMS7003;66382;52.252;8.780;2023-02-22T09:42:15;35.00;32.67;20.67
77320;PMS7003;66382;52.252;8.780;2023-02-22T09:44:49;32.00;30.00;17.00
77320;PMS7003;66382;52.252;8.780;2023-02-22T09:47:20;28.33;27.33;14.33
77320;PMS7003;66382;52.252;8.780;2023-02-22T09:49:52;29.75;29.50;18.25
77320;PMS7003;66382;52.252;8.780;2023-02-22T09:52:23;24.25;24.25;17.50
77320;PMS7003;66382;52.252;8.780;2023-02-22T09:54:54;31.67;30.33;18.67
77320;PMS7003;66382;52.252;8.780;2023-02-22T09:57:32;35.33;33.67;22.00
77320;PMS7003;66382;52.252;8.780;2023-02-22T10:00:03;26.00;26.00;16.33
77320;PMS7003;66382;52.252;8.780;2023-02-22T10:02:37;33.67;33.00;21.33
77320;PMS7003;66382;52.252;8.780;2023-02-22T10:05:10;28.33;28.33;19.00
77320;PMS7003;66382;52.252;8.780;2023-02-22T10:07:43;25.00;25.00;19.67
77320;PMS7003;66382;52.252;8.780;2023-02-22T10:10:15;26.50;26.50;17.25
77320;PMS7003;66382;52.252;8.780;2023-02-22T10:12:43;22.00;22.00;16.50
77320;PMS7003;66382;52.252;8.780;2023-02-22T10:21:15;35.33;33.00;20.67
77320;PMS7003;66382;52.252;8.780;2023-02-22T10:23:56;30.33;30.33;21.33
77320;PMS7003;66382;52.252;8.780;2023-02-22T10:26:31;30.67;30.00;19.67
77320;PMS7003;66382;52.252;8.780;2023-02-22T10:29:00;33.00;32.67;20.33
77320;PMS7003;66382;52.252;8.780;2023-02-22T10:31:33;33.33;32.67;21.00
77320;PMS7003;66382;52.252;8.780;2023-02-22T10:34:04;38.33;35.67;22.33
77320;PMS7003;66382;52.252;8.780;2023-02-22T10:36:35;36.00;34.67;19.67
77320;PMS7003;66382;52.252;8.780;2023-02-22T10:39:09;37.00;34.33;21.33
77320;PMS7003;66382;52.252;8.780;2023-02-22T10:41:46;35.00;34.00;21.33
77320;PMS7003;66382;52.252;8.780;2023-02-22T10:44:15;31.00;30.67;21.00
77320;PMS7003;66382;52.252;8.780;2023-02-22T10:46:42;34.33;34.00;22.33
77320;PMS7003;66382;52.252;8.780;2023-02-22T10:49:10;30.75;29.75;20.50
77320;PMS7003;66382;52.252;8.780;2023-02-22T10:51:42;28.75;28.75;18.75
77320;PMS7003;66382;52.252;8.780;2023-02-22T10:54:20;29.33;29.33;18.00
77320;PMS7003;66382;52.252;8.780;2023-02-22T10:56:51;24.50;24.50;17.75
77320;PMS7003;66382;52.252;8.780;2023-02-22T10:59:25;27.25;27.25;19.00
77320;PMS7003;66382;52.252;8.780;2023-02-22T11:01:53;29.25;29.25;21.00
77320;PMS7003;66382;52.252;8.780;2023-02-22T11:04:20;29.50;29.50;20.00
77320;PMS7003;66382;52.252;8.780;2023-02-22T11:06:47;24.25;24.25;16.25
77320;PMS7003;66382;52.252;8.780;2023-02-22T11:09:15;29.25;29.25;18.50
77320;PMS7003;66382;52.252;8.780;2023-02-22T11:11:43;30.25;29.25;19.00
77320;PMS7003;66382;52.252;8.780;2023-02-22T11:14:11;30.00;29.50;21.50
77320;PMS7003;66382;52.252;8.780;2023-02-22T11:16:38;23.00;22.50;15.00
77320;PMS7003;66382;52.252;8.780;2023-02-22T11:19:11;30.00;30.00;19.25
77320;PMS7003;66382;52.252;8.780;2023-02-22T11:21:42;24.50;24.50;15.00
77320;PMS7003;66382;52.252;8.780;2023-02-22T11:24:09;26.25;25.50;16.75
77320;PMS7003;66382;52.252;8.780;2023-02-22T11:26:39;24.75;24.75;16.50
77320;PMS7003;66382;52.252;8.780;2023-02-22T11:29:10;23.25;23.25;14.50
77320;PMS7003;66382;52.252;8.780;2023-02-22T11:31:42;26.00;26.00;18.75
77320;PMS7003;66382;52.252;8.780;2023-02-22T11:34:25;20.00;20.00;13.50
77320;PMS7003;66382;52.252;8.780;2023-02-22T11:36:53;21.75;21.75;15.50
77320;PMS7003;66382;52.252;8.780;2023-02-22T11:39:23;19.33;19.33;14.33
77320;PMS7003;66382;52.252;8.780;2023-02-22T11:41:51;23.25;23.25;18.00
77320;PMS7003;66382;52.252;8.780;2023-02-22T11:44:23;21.25;21.25;17.00
77320;PMS7003;66382;52.252;8.780;2023-02-22T11:46:51;26.00;25.50;17.75
77320;PMS7003;66382;52.252;8.780;2023-02-22T11:49:18;21.00;21.00;13.50
77320;PMS7003;66382;52.252;8.780;2023-02-22T11:51:47;21.67;21.67;13.67
77320;PMS7003;66382;52.252;8.780;2023-02-22T11:54:33;21.50;21.50;13.25
77320;PMS7003;66382;52.252;8.780;2023-02-22T11:57:12;20.50;20.50;12.50
77320;PMS7003;66382;52.252;8.780;2023-02-22T11:59:50;20.00;19.75;13.50
77320;PMS7003;66382;52.252;8.780;2023-02-22T12:02:29;19.25;19.25;11.25
77320;PMS7003;66382;52.252;8.780;2023-02-22T12:05:11;13.75;13.75;11.00
77320;PMS7003;66382;52.252;8.780;2023-02-22T12:07:50;18.50;18.50;13.00
77320;PMS7003;66382;52.252;8.780;2023-02-22T12:10:36;16.25;16.25;13.25
77320;PMS7003;66382;52.252;8.780;2023-02-22T12:13:15;22.75;22.75;15.25
77320;PMS7003;66382;52.252;8.780;2023-02-22T12:15:50;19.75;18.75;14.50
77320;PMS7003;66382;52.252;8.780;2023-02-22T12:18:20;23.25;23.25;17.50
77320;PMS7003;66382;52.252;8.780;2023-02-22T12:20:56;16.25;16.25;12.00
77320;PMS7003;66382;52.252;8.780;2023-02-22T12:23:27;23.75;22.25;16.75
77320;PMS7003;66382;52.252;8.780;2023-02-22T12:26:00;22.25;22.25;15.25
77320;PMS7003;66382;52.252;8.780;2023-02-22T12:28:31;22.50;21.00;16.50
77320;PMS7003;66382;52.252;8.780;2023-02-22T12:31:06;19.50;19.50;11.25
77320;PMS7003;66382;52.252;8.780;2023-02-22T12:33:42;22.00;20.75;16.75
77320;PMS7003;66382;52.252;8.780;2023-02-22T12:36:17;18.75;18.00;11.75
77320;PMS7003;66382;52.252;8.780;2023-02-22T12:38:51;20.75;20.75;14.25
77320;PMS7003;66382;52.252;8.780;2023-02-22T12:41:24;14.50;14.50;9.50
77320;PMS7003;66382;52.252;8.780;2023-02-22T12:43:59;21.00;21.00;15.00
77320;PMS7003;66382;52.252;8.780;2023-02-22T12:46:29;20.25;20.25;14.25
77320;PMS7003;66382;52.252;8.780;2023-02-22T12:48:59;17.75;17.75;12.75
77320;PMS7003;66382;52.252;8.780;2023-02-22T12:51:37;18.00;18.00;12.00
77320;PMS7003;66382;52.252;8.780;2023-02-22T12:54:13;16.25;16.25;13.00
77320;PMS7003;66382;52.252;8.780;2023-02-22T12:56:47;16.50;16.50;12.00
77320;PMS7003;66382;52.252;8.780;2023-02-22T12:59:18;17.00;17.00;13.25
77320;PMS7003;66382;52.252;8.780;2023-02-22T13:01:50;19.25;19.25;14.00
77320;PMS7003;66382;52.252;8.780;2023-02-22T13:04:19;19.25;19.25;15.25
77320;PMS7003;66382;52.252;8.780;2023-02-22T13:06:48;16.33;16.33;12.33
77320;PMS7003;66382;52.252;8.780;2023-02-22T13:09:52;19.25;19.25;12.50
77320;PMS7003;66382;52.252;8.780;2023-02-22T13:12:30;21.75;21.75;15.50
77320;PMS7003;66382;52.252;8.780;2023-02-22T13:15:07;18.25;18.25;15.25
77320;PMS7003;66382;52.252;8.780;2023-02-22T13:17:45;18.25;18.25;14.75
77320;PMS7003;66382;52.252;8.780;2023-02-22T13:20:21;19.75;19.75;15.00
77320;PMS7003;66382;52.252;8.780;2023-02-22T13:22:52;16.75;16.75;12.25
77320;PMS7003;66382;52.252;8.780;2023-02-22T13:25:27;17.50;17.50;12.25
77320;PMS7003;66382;52.252;8.780;2023-02-22T13:28:01;16.25;15.00;12.00
77320;PMS7003;66382;52.252;8.780;2023-02-22T13:30:40;15.25;15.25;12.50
77320;PMS7003;66382;52.252;8.780;2023-02-22T13:33:15;16.25;16.25;11.75
77320;PMS7003;66382;52.252;8.780;2023-02-22T13:41:41;14.00;14.00;10.75
77320;PMS7003;66382;52.252;8.780;2023-02-22T13:44:45;14.25;14.25;11.50
77320;PMS7003;66382;52.252;8.780;2023-02-22T13:47:37;11.75;11.75;9.00
77320;PMS7003;66382;52.252;8.780;2023-02-22T13:50:19;18.75;17.75;11.75
77320;PMS7003;66382;52.252;8.780;2023-02-22T13:52:56;9.25;9.25;6.00
77320;PMS7003;66382;52.252;8.780;2023-02-22T13:55:23;10.25;10.25;8.75
77320;PMS7003;66382;52.252;8.780;2023-02-22T13:57:58;10.50;10.50;8.50
77320;PMS7003;66382;52.252;8.780;2023-02-22T14:00:40;14.50;14.50;11.00
77320;PMS7003;66382;52.252;8.780;2023-02-22T14:03:26;13.25;13.25;10.25
77320;PMS7003;66382;52.252;8.780;2023-02-22T14:05:57;17.25;17.25;12.75
77320;PMS7003;66382;52.252;8.780;2023-02-22T14:08:38;17.33;17.33;12.00
77320;PMS7003;66382;52.252;8.780;2023-02-22T14:14:15;12.25;12.25;10.00
77320;PMS7003;66382;52.252;8.780;2023-02-22T14:16:42;16.00;16.00;12.75
77320;PMS7003;66382;52.252;8.780;2023-02-22T14:19:13;16.25;16.25;11.75
77320;PMS7003;66382;52.252;8.780;2023-02-22T14:21:54;14.25;14.25;10.75
77320;PMS7003;66382;52.252;8.780;2023-02-22T14:24:21;14.25;14.25;10.75